sensor_id;sensor_type;location;lat;lon;timestamp;pressure;altitude;pressure_sealevel;temperature;humidity
21129;BME280;10722;51.910;8.352;2022-10-03T00:23:34;101652.69;;;9.60;100.00
21129;BME280;10722;51.910;8.352;2022-10-03T00:26:27;101650.69;;;9.53;100.00
21129;BME280;10722;51.910;8.352;2022-10-03T00:52:57;101666.53;;;9.38;100.00
21129;BME280;10722;51.910;8.352;2022-10-03T01:02:33;101674.59;;;9.03;100.00
21129;BME280;10722;51.910;8.352;2022-10-03T01:05:42;101692.78;;;9.06;100.00
21129;BME280;10722;51.910;8.352;2022-10-03T01:14:42;101692.78;;;8.83;100.00
21129;BME280;10722;51.910;8.352;2022-10-03T01:20:57;101708.75;;;8.95;100.00
21129;BME280;10722;51.910;8.352;2022-10-03T01:27:12;101707.94;;;8.96;100.00
21129;BME280;10722;51.910;8.352;2022-10-03T01:30:03;101702.13;;;9.02;100.00
21129;BME280;10722;51.910;8.352;2022-10-03T01:33:09;101702.88;;;9.00;100.00
21129;BME280;10722;51.910;8.352;2022-10-03T01:41:51;101714.50;;;8.67;100.00
21129;BME280;10722;51.910;8.352;2022-10-03T01:54:20;101715.75;;;8.56;100.00
21129;BME280;10722;51.910;8.352;2022-10-03T01:57:11;101724.44;;;8.58;100.00
21129;BME280;10722;51.910;8.352;2022-10-03T02:03:25;101731.28;;;8.58;100.00
21129;BME280;10722;51.910;8.352;2022-10-03T02:09:32;101733.63;;;8.72;100.00
21129;BME280;10722;51.910;8.352;2022-10-03T02:12:31;101728.66;;;8.56;100.00
21129;BME280;10722;51.910;8.352;2022-10-03T02:15:33;101734.06;;;8.62;100.00
21129;BME280;10722;51.910;8.352;2022-10-03T02:18:48;101735.78;;;8.62;100.00
21129;BME280;10722;51.910;8.352;2022-10-03T02:21:45;101738.97;;;8.56;100.00
21129;BME280;10722;51.910;8.352;2022-10-03T02:27:41;101744.31;;;8.40;100.00
21129;BME280;10722;51.910;8.352;2022-10-03T02:33:45;101740.84;;;8.20;100.00
21129;BME280;10722;51.910;8.352;2022-10-03T03:11:43;101783.47;;;7.94;100.00
21129;BME280;10722;51.910;8.352;2022-10-03T03:28:00;101785.41;;;7.60;100.00
21129;BME280;10722;51.910;8.352;2022-10-03T03:34:13;101792.09;;;7.75;100.00
21129;BME280;10722;51.910;8.352;2022-10-03T04:07:29;101799.91;;;7.58;100.00
21129;BME280;10722;51.910;8.352;2022-10-03T04:41:08;101813.31;;;8.08;100.00
21129;BME280;10722;51.910;8.352;2022-10-03T04:50:38;101820.19;;;8.07;100.00
21129;BME280;10722;51.910;8.352;2022-10-03T04:53:49;101821.66;;;8.02;100.00
21129;BME280;10722;51.910;8.352;2022-10-03T04:57:04;101823.91;;;7.95;100.00
21129;BME280;10722;51.910;8.352;2022-10-03T05:09:47;101835.13;;;8.15;100.00
21129;BME280;10722;51.910;8.352;2022-10-03T05:12:46;101827.66;;;8.21;100.00
21129;BME280;10722;51.910;8.352;2022-10-03T05:15:58;101831.13;;;8.21;100.00
21129;BME280;10722;51.910;8.352;2022-10-03T05:22:35;101843.47;;;8.09;100.00
21129;BME280;10722;51.910;8.352;2022-10-03T05:31:19;101855.75;;;7.97;100.00
21129;BME280;10722;51.910;8.352;2022-10-03T05:40:20;101854.56;;;8.45;100.00
21129;BME280;10722;51.910;8.352;2022-10-03T05:46:02;101863.88;;;8.24;100.00
21129;BME280;10722;51.910;8.352;2022-10-03T05:51:52;101873.47;;;8.26;100.00
21129;BME280;10722;51.910;8.352;2022-10-03T05:55:01;101875.28;;;8.29;100.00
21129;BME280;10722;51.910;8.352;2022-10-03T06:05:35;101877.19;;;8.51;100.00
21129;BME280;10722;51.910;8.352;2022-10-03T06:36:18;101905.47;;;8.88;100.00
21129;BME280;10722;51.910;8.352;2022-10-03T07:06:40;101914.81;;;8.86;100.00
21129;BME280;10722;51.910;8.352;2022-10-03T07:38:09;101939.09;;;9.30;100.00
21129;BME280;10722;51.910;8.352;2022-10-03T07:41:22;101951.88;;;9.48;100.00
21129;BME280;10722;51.910;8.352;2022-10-03T08:06:28;101960.16;;;10.04;100.00
21129;BME280;10722;51.910;8.352;2022-10-03T08:12:59;101962.91;;;10.29;100.00
21129;BME280;10722;51.910;8.352;2022-10-03T08:19:07;101960.16;;;10.71;100.00
21129;BME280;10722;51.910;8.352;2022-10-03T08:22:19;101968.81;;;10.72;100.00
21129;BME280;10722;51.910;8.352;2022-10-03T08:56:55;101954.81;;;12.20;100.00
21129;BME280;10722;51.910;8.352;2022-10-03T09:13:30;101950.03;;;12.63;100.00
21129;BME280;10722;51.910;8.352;2022-10-03T09:23:07;101937.75;;;12.89;100.00
21129;BME280;10722;51.910;8.352;2022-10-03T09:35:41;101946.25;;;12.51;100.00
21129;BME280;10722;51.910;8.352;2022-10-03T09:38:49;101954.78;;;12.47;100.00
21129;BME280;10722;51.910;8.352;2022-10-03T09:48:15;101948.78;;;12.80;100.00
21129;BME280;10722;51.910;8.352;2022-10-03T09:54:34;101950.47;;;13.10;100.00
21129;BME280;10722;51.910;8.352;2022-10-03T10:04:13;101914.78;;;13.36;100.00
21129;BME280;10722;51.910;8.352;2022-10-03T10:08:06;101926.00;;;13.70;100.00
21129;BME280;10722;51.910;8.352;2022-10-03T10:36:12;101893.28;;;14.60;98.17
21129;BME280;10722;51.910;8.352;2022-10-03T10:52:13;101877.94;;;14.75;95.18
21129;BME280;10722;51.910;8.352;2022-10-03T11:05:01;101820.81;;;14.84;90.32
21129;BME280;10722;51.910;8.352;2022-10-03T11:17:54;101827.69;;;14.79;90.16
21129;BME280;10722;51.910;8.352;2022-10-03T11:48:44;101720.91;;;15.41;81.09
21129;BME280;10722;51.910;8.352;2022-10-03T11:51:43;101706.56;;;15.12;80.30
21129;BME280;10722;51.910;8.352;2022-10-03T11:54:42;101765.06;;;15.29;82.43
21129;BME280;10722;51.910;8.352;2022-10-03T11:57:37;101794.88;;;15.48;83.82
21129;BME280;10722;51.910;8.352;2022-10-03T12:00:23;101795.06;;;15.60;83.93
21129;BME280;10722;51.910;8.352;2022-10-03T12:03:26;101783.19;;;15.82;82.99
21129;BME280;10722;51.910;8.352;2022-10-03T12:09:17;101766.19;;;16.13;81.57
21129;BME280;10722;51.910;8.352;2022-10-03T12:21:21;101786.94;;;16.04;81.83
21129;BME280;10722;51.910;8.352;2022-10-03T12:30:00;101799.72;;;15.81;81.54
21129;BME280;10722;51.910;8.352;2022-10-03T12:33:17;101701.75;;;16.09;76.55
21129;BME280;10722;51.910;8.352;2022-10-03T12:36:11;101704.56;;;16.28;76.32
21129;BME280;10722;51.910;8.352;2022-10-03T12:50:58;101604.38;;;18.60;67.76
21129;BME280;10722;51.910;8.352;2022-10-03T12:56:48;101647.22;;;18.19;68.51
21129;BME280;10722;51.910;8.352;2022-10-03T12:59:46;101656.72;;;19.17;67.71
21129;BME280;10722;51.910;8.352;2022-10-03T13:06:14;101664.66;;;18.23;68.08
21129;BME280;10722;51.910;8.352;2022-10-03T13:09:12;101672.53;;;18.22;67.71
21129;BME280;10722;51.910;8.352;2022-10-03T13:12:06;101717.06;;;18.25;69.55
21129;BME280;10722;51.910;8.352;2022-10-03T13:25:13;101798.47;;;16.20;76.57
21129;BME280;10722;51.910;8.352;2022-10-03T13:28:06;101773.56;;;16.54;75.87
21129;BME280;10722;51.910;8.352;2022-10-03T13:31:02;101702.16;;;16.55;72.33
21129;BME280;10722;51.910;8.352;2022-10-03T13:33:56;101751.97;;;16.71;73.87
21129;BME280;10722;51.910;8.352;2022-10-03T13:36:48;101724.91;;;16.66;72.44
21129;BME280;10722;51.910;8.352;2022-10-03T13:39:51;101786.75;;;16.65;74.95
21129;BME280;10722;51.910;8.352;2022-10-03T13:42:44;101783.19;;;16.57;75.37
21129;BME280;10722;51.910;8.352;2022-10-03T13:45:31;101805.75;;;16.50;76.94
21129;BME280;10722;51.910;8.352;2022-10-03T13:48:19;101789.13;;;16.42;76.20
21129;BME280;10722;51.910;8.352;2022-10-03T13:51:30;101806.44;;;16.31;77.37
21129;BME280;10722;51.910;8.352;2022-10-03T13:57:35;101813.16;;;16.12;78.51
21129;BME280;10722;51.910;8.352;2022-10-03T14:00:23;101812.91;;;15.92;79.23
21129;BME280;10722;51.910;8.352;2022-10-03T14:06:33;101805.25;;;16.06;79.35
21129;BME280;10722;51.910;8.352;2022-10-03T14:19:03;101777.59;;;15.56;77.92
21129;BME280;10722;51.910;8.352;2022-10-03T14:22:13;101790.59;;;15.53;78.65
21129;BME280;10722;51.910;8.352;2022-10-03T14:28:42;101810.56;;;15.51;79.60
21129;BME280;10722;51.910;8.352;2022-10-03T14:31:48;101786.13;;;15.44;79.23
21129;BME280;10722;51.910;8.352;2022-10-03T14:40:47;101800.25;;;15.57;79.65
21129;BME280;10722;51.910;8.352;2022-10-03T14:43:43;101785.47;;;15.58;78.65
21129;BME280;10722;51.910;8.352;2022-10-03T14:46:33;101773.34;;;15.61;78.06
21129;BME280;10722;51.910;8.352;2022-10-03T14:49:25;101802.00;;;15.58;79.49
21129;BME280;10722;51.910;8.352;2022-10-03T14:52:38;101782.00;;;15.57;78.50
21129;BME280;10722;51.910;8.352;2022-10-03T14:55:31;101770.63;;;15.52;77.94
21129;BME280;10722;51.910;8.352;2022-10-03T14:58:21;101787.91;;;15.47;79.12
21129;BME280;10722;51.910;8.352;2022-10-03T15:01:27;101775.50;;;15.29;78.63
21129;BME280;10722;51.910;8.352;2022-10-03T15:04:20;101793.09;;;15.44;79.78
21129;BME280;10722;51.910;8.352;2022-10-03T15:07:08;101794.84;;;15.45;79.43
21129;BME280;10722;51.910;8.352;2022-10-03T15:09:54;101762.78;;;15.52;78.40
21129;BME280;10722;51.910;8.352;2022-10-03T15:12:42;101764.72;;;15.65;78.16
21129;BME280;10722;51.910;8.352;2022-10-03T15:15:34;101778.56;;;15.61;79.00
21129;BME280;10722;51.910;8.352;2022-10-03T15:18:23;101795.97;;;15.64;79.80
21129;BME280;10722;51.910;8.352;2022-10-03T15:21:13;101796.13;;;15.72;80.20
21129;BME280;10722;51.910;8.352;2022-10-03T15:24:02;101792.69;;;15.74;80.16
21129;BME280;10722;51.910;8.352;2022-10-03T15:26:54;101811.50;;;15.55;81.02
21129;BME280;10722;51.910;8.352;2022-10-03T15:29:42;101799.41;;;15.60;80.73
21129;BME280;10722;51.910;8.352;2022-10-03T15:32:37;101766.03;;;15.36;79.69
21129;BME280;10722;51.910;8.352;2022-10-03T15:35:25;101783.28;;;15.26;80.26
21129;BME280;10722;51.910;8.352;2022-10-03T15:38:17;101820.59;;;15.23;83.39
21129;BME280;10722;51.910;8.352;2022-10-03T15:41:14;101767.56;;;15.21;80.88
21129;BME280;10722;51.910;8.352;2022-10-03T15:44:04;101767.47;;;15.15;80.58
21129;BME280;10722;51.910;8.352;2022-10-03T15:46:56;101788.06;;;14.98;82.22
21129;BME280;10722;51.910;8.352;2022-10-03T15:52:42;101773.56;;;15.16;82.25
21129;BME280;10722;51.910;8.352;2022-10-03T15:55:34;101777.91;;;15.17;82.94
21129;BME280;10722;51.910;8.352;2022-10-03T15:58:32;101784.06;;;15.22;83.31
21129;BME280;10722;51.910;8.352;2022-10-03T16:01:25;101787.72;;;15.32;83.35
21129;BME280;10722;51.910;8.352;2022-10-03T16:04:32;101779.56;;;15.12;84.17
21129;BME280;10722;51.910;8.352;2022-10-03T16:07:28;101805.63;;;15.12;86.07
21129;BME280;10722;51.910;8.352;2022-10-03T16:10:19;101789.16;;;15.14;87.03
21129;BME280;10722;51.910;8.352;2022-10-03T16:13:21;101763.81;;;15.06;86.11
21129;BME280;10722;51.910;8.352;2022-10-03T16:16:46;101784.63;;;15.01;88.26
21129;BME280;10722;51.910;8.352;2022-10-03T16:19:41;101756.88;;;15.06;86.40
21129;BME280;10722;51.910;8.352;2022-10-03T16:22:40;101737.72;;;15.02;84.67
21129;BME280;10722;51.910;8.352;2022-10-03T16:25:55;101735.63;;;14.78;85.00
21129;BME280;10722;51.910;8.352;2022-10-03T16:28:48;101736.44;;;14.76;84.91
21129;BME280;10722;51.910;8.352;2022-10-03T16:31:49;101762.50;;;14.77;86.10
21129;BME280;10722;51.910;8.352;2022-10-03T16:34:40;101737.22;;;14.70;85.25
21129;BME280;10722;51.910;8.352;2022-10-03T16:37:28;101770.13;;;14.67;87.12
21129;BME280;10722;51.910;8.352;2022-10-03T16:40:19;101788.03;;;14.50;89.49
21129;BME280;10722;51.910;8.352;2022-10-03T16:43:05;101788.47;;;14.26;90.05
21129;BME280;10722;51.910;8.352;2022-10-03T16:45:52;101779.78;;;14.25;90.07
21129;BME280;10722;51.910;8.352;2022-10-03T16:48:41;101784.88;;;14.21;90.85
21129;BME280;10722;51.910;8.352;2022-10-03T16:52:07;101785.88;;;13.85;92.32
21129;BME280;10722;51.910;8.352;2022-10-03T16:54:58;101796.09;;;13.76;93.35
21129;BME280;10722;51.910;8.352;2022-10-03T16:57:54;101776.28;;;13.82;93.09
21129;BME280;10722;51.910;8.352;2022-10-03T17:04:00;101787.38;;;13.74;93.94
21129;BME280;10722;51.910;8.352;2022-10-03T17:06:49;101788.72;;;13.55;94.52
21129;BME280;10722;51.910;8.352;2022-10-03T17:09:38;101798.81;;;13.42;95.85
21129;BME280;10722;51.910;8.352;2022-10-03T17:15:18;101797.25;;;13.13;97.95
21129;BME280;10722;51.910;8.352;2022-10-03T17:18:43;101799.88;;;13.14;98.91
21129;BME280;10722;51.910;8.352;2022-10-03T17:21:37;101794.22;;;13.29;98.48
21129;BME280;10722;51.910;8.352;2022-10-03T17:24:44;101785.75;;;13.39;97.21
21129;BME280;10722;51.910;8.352;2022-10-03T17:27:39;101771.94;;;13.06;96.98
21129;BME280;10722;51.910;8.352;2022-10-03T17:30:32;101790.59;;;12.89;98.07
21129;BME280;10722;51.910;8.352;2022-10-03T17:34:06;101779.38;;;12.90;98.09
21129;BME280;10722;51.910;8.352;2022-10-03T17:46:45;101789.56;;;12.18;100.00
21129;BME280;10722;51.910;8.352;2022-10-03T17:49:57;101783.06;;;12.02;100.00
21129;BME280;10722;51.910;8.352;2022-10-03T17:52:46;101786.75;;;11.80;100.00
21129;BME280;10722;51.910;8.352;2022-10-03T17:55:37;101793.41;;;11.72;100.00
21129;BME280;10722;51.910;8.352;2022-10-03T17:58:25;101789.97;;;11.73;100.00
21129;BME280;10722;51.910;8.352;2022-10-03T18:01:15;101788.50;;;11.81;100.00
21129;BME280;10722;51.910;8.352;2022-10-03T18:04:04;101786.97;;;11.87;100.00
21129;BME280;10722;51.910;8.352;2022-10-03T18:06:54;101782.44;;;11.80;100.00
21129;BME280;10722;51.910;8.352;2022-10-03T18:09:51;101785.97;;;11.84;100.00
21129;BME280;10722;51.910;8.352;2022-10-03T18:12:39;101786.34;;;11.95;100.00
21129;BME280;10722;51.910;8.352;2022-10-03T18:15:36;101777.31;;;12.12;100.00
21129;BME280;10722;51.910;8.352;2022-10-03T18:27:51;101774.16;;;11.63;100.00
21129;BME280;10722;51.910;8.352;2022-10-03T18:33:59;101779.34;;;11.63;100.00
21129;BME280;10722;51.910;8.352;2022-10-03T18:36:48;101766.69;;;11.74;100.00
21129;BME280;10722;51.910;8.352;2022-10-03T18:39:35;101769.28;;;11.74;100.00
21129;BME280;10722;51.910;8.352;2022-10-03T18:42:24;101757.91;;;11.69;100.00
21129;BME280;10722;51.910;8.352;2022-10-03T18:45:16;101757.72;;;11.63;100.00
21129;BME280;10722;51.910;8.352;2022-10-03T18:48:18;101766.75;;;11.47;100.00
21129;BME280;10722;51.910;8.352;2022-10-03T19:00:24;101762.66;;;11.27;100.00
21129;BME280;10722;51.910;8.352;2022-10-03T19:03:14;101761.56;;;11.20;100.00
21129;BME280;10722;51.910;8.352;2022-10-03T19:09:24;101759.16;;;11.26;100.00
21129;BME280;10722;51.910;8.352;2022-10-03T19:12:19;101753.59;;;11.12;100.00
21129;BME280;10722;51.910;8.352;2022-10-03T19:18:27;101754.31;;;11.08;100.00
21129;BME280;10722;51.910;8.352;2022-10-03T19:21:17;101750.56;;;10.98;100.00
21129;BME280;10722;51.910;8.352;2022-10-03T19:24:07;101742.53;;;10.91;100.00
21129;BME280;10722;51.910;8.352;2022-10-03T19:27:16;101739.59;;;10.80;100.00
21129;BME280;10722;51.910;8.352;2022-10-03T19:30:05;101731.47;;;10.69;100.00
21129;BME280;10722;51.910;8.352;2022-10-03T19:35:39;101764.97;;;10.90;100.00
21129;BME280;10722;51.910;8.352;2022-10-03T19:38:37;101759.91;;;10.95;100.00
21129;BME280;10722;51.910;8.352;2022-10-03T19:44:42;101759.97;;;10.21;100.00
21129;BME280;10722;51.910;8.352;2022-10-03T19:47:30;101773.66;;;10.19;100.00
21129;BME280;10722;51.910;8.352;2022-10-03T19:50:19;101778.66;;;9.90;100.00
21129;BME280;10722;51.910;8.352;2022-10-03T19:53:11;101784.97;;;9.97;100.00
21129;BME280;10722;51.910;8.352;2022-10-03T19:56:01;101772.88;;;10.20;100.00
21129;BME280;10722;51.910;8.352;2022-10-03T19:58:59;101772.00;;;10.19;100.00
21129;BME280;10722;51.910;8.352;2022-10-03T20:01:47;101764.09;;;10.16;100.00
21129;BME280;10722;51.910;8.352;2022-10-03T20:04:34;101767.63;;;10.18;100.00
21129;BME280;10722;51.910;8.352;2022-10-03T20:13:33;101761.56;;;9.94;100.00
21129;BME280;10722;51.910;8.352;2022-10-03T20:16:26;101767.63;;;9.94;100.00
21129;BME280;10722;51.910;8.352;2022-10-03T20:19:15;101767.75;;;9.97;100.00
21129;BME280;10722;51.910;8.352;2022-10-03T20:22:04;101755.47;;;9.92;100.00
21129;BME280;10722;51.910;8.352;2022-10-03T20:24:49;101750.13;;;9.87;100.00
21129;BME280;10722;51.910;8.352;2022-10-03T20:33:36;101754.41;;;9.86;100.00
21129;BME280;10722;51.910;8.352;2022-10-03T20:36:26;101761.84;;;9.77;100.00
21129;BME280;10722;51.910;8.352;2022-10-03T20:39:26;101758.53;;;9.81;100.00
21129;BME280;10722;51.910;8.352;2022-10-03T20:42:19;101739.09;;;9.91;100.00
21129;BME280;10722;51.910;8.352;2022-10-03T20:45:21;101749.16;;;9.61;100.00
21129;BME280;10722;51.910;8.352;2022-10-03T20:48:15;101753.19;;;9.54;100.00
21129;BME280;10722;51.910;8.352;2022-10-03T20:51:04;101756.56;;;9.52;100.00
21129;BME280;10722;51.910;8.352;2022-10-03T20:53:51;101757.72;;;9.37;100.00
21129;BME280;10722;51.910;8.352;2022-10-03T20:56:44;101754.53;;;9.22;100.00
21129;BME280;10722;51.910;8.352;2022-10-03T20:59:40;101757.81;;;8.95;100.00
21129;BME280;10722;51.910;8.352;2022-10-03T21:06:17;101768.22;;;8.78;100.00
21129;BME280;10722;51.910;8.352;2022-10-03T21:09:04;101772.88;;;8.86;100.00
21129;BME280;10722;51.910;8.352;2022-10-03T21:11:51;101770.09;;;8.61;100.00
21129;BME280;10722;51.910;8.352;2022-10-03T21:14:39;101770.63;;;8.73;100.00
21129;BME280;10722;51.910;8.352;2022-10-03T21:17:27;101767.47;;;8.80;100.00
21129;BME280;10722;51.910;8.352;2022-10-03T21:20:17;101768.81;;;8.91;100.00
21129;BME280;10722;51.910;8.352;2022-10-03T21:23:14;101770.88;;;9.00;100.00
21129;BME280;10722;51.910;8.352;2022-10-03T21:26:01;101758.78;;;8.99;100.00
21129;BME280;10722;51.910;8.352;2022-10-03T21:29:13;101756.25;;;9.01;100.00
21129;BME280;10722;51.910;8.352;2022-10-03T21:32:18;101751.94;;;9.00;100.00
21129;BME280;10722;51.910;8.352;2022-10-03T21:35:24;101746.84;;;9.01;100.00
21129;BME280;10722;51.910;8.352;2022-10-03T21:38:24;101738.31;;;9.04;100.00
21129;BME280;10722;51.910;8.352;2022-10-03T21:41:34;101737.88;;;9.14;100.00
21129;BME280;10722;51.910;8.352;2022-10-03T21:44:32;101749.25;;;9.19;100.00
21129;BME280;10722;51.910;8.352;2022-10-03T21:47:41;101750.09;;;9.18;100.00
21129;BME280;10722;51.910;8.352;2022-10-03T21:50:31;101746.16;;;8.84;100.00
21129;BME280;10722;51.910;8.352;2022-10-03T21:59:47;101745.66;;;8.93;100.00
21129;BME280;10722;51.910;8.352;2022-10-03T22:05:54;101743.66;;;9.08;100.00
21129;BME280;10722;51.910;8.352;2022-10-03T22:08:43;101725.16;;;9.18;100.00
21129;BME280;10722;51.910;8.352;2022-10-03T22:11:54;101721.84;;;9.00;100.00
21129;BME280;10722;51.910;8.352;2022-10-03T22:15:05;101723.53;;;9.00;100.00
21129;BME280;10722;51.910;8.352;2022-10-03T22:17:59;101727.00;;;9.00;100.00
21129;BME280;10722;51.910;8.352;2022-10-03T22:20:56;101731.16;;;8.96;100.00
21129;BME280;10722;51.910;8.352;2022-10-03T22:23:50;101727.88;;;9.01;100.00
21129;BME280;10722;51.910;8.352;2022-10-03T22:26:43;101727.06;;;9.02;100.00
21129;BME280;10722;51.910;8.352;2022-10-03T22:29:41;101707.50;;;9.29;100.00
21129;BME280;10722;51.910;8.352;2022-10-03T22:32:39;101710.19;;;9.32;100.00
21129;BME280;10722;51.910;8.352;2022-10-03T22:38:34;101728.66;;;9.20;100.00
21129;BME280;10722;51.910;8.352;2022-10-03T22:41:25;101722.16;;;9.30;100.00
21129;BME280;10722;51.910;8.352;2022-10-03T22:44:14;101735.16;;;9.11;100.00
21129;BME280;10722;51.910;8.352;2022-10-03T22:47:11;101733.56;;;9.14;100.00
21129;BME280;10722;51.910;8.352;2022-10-03T22:50:02;101720.03;;;9.20;100.00
21129;BME280;10722;51.910;8.352;2022-10-03T22:52:50;101723.25;;;9.14;100.00
21129;BME280;10722;51.910;8.352;2022-10-03T22:55:36;101728.19;;;9.08;100.00
21129;BME280;10722;51.910;8.352;2022-10-03T22:58:28;101715.44;;;8.90;100.00
21129;BME280;10722;51.910;8.352;2022-10-03T23:01:14;101716.00;;;8.62;100.00
21129;BME280;10722;51.910;8.352;2022-10-03T23:04:03;101725.31;;;8.59;100.00
21129;BME280;10722;51.910;8.352;2022-10-03T23:15:50;101693.59;;;8.82;100.00
21129;BME280;10722;51.910;8.352;2022-10-03T23:21:30;101705.00;;;8.87;100.00
21129;BME280;10722;51.910;8.352;2022-10-03T23:30:51;101687.75;;;9.31;100.00
21129;BME280;10722;51.910;8.352;2022-10-03T23:36:23;101702.59;;;9.14;100.00
21129;BME280;10722;51.910;8.352;2022-10-03T23:39:29;101704.25;;;9.12;100.00
21129;BME280;10722;51.910;8.352;2022-10-03T23:45:19;101694.97;;;9.17;100.00
21129;BME280;10722;51.910;8.352;2022-10-03T23:48:11;101694.50;;;9.28;100.00
21129;BME280;10722;51.910;8.352;2022-10-03T23:51:04;101699.56;;;9.25;100.00
21129;BME280;10722;51.910;8.352;2022-10-03T23:53:55;101692.28;;;9.14;100.00
21129;BME280;10722;51.910;8.352;2022-10-03T23:56:42;101683.63;;;9.12;100.00
21129;BME280;10722;51.910;8.352;2022-10-03T23:59:31;101673.31;;;9.14;100.00
